sensor_id;sensor_type;location;lat;lon;timestamp;noise_LAeq;noise_LA_min;noise_LA_max;noise_LA01;noise_LA95
80324;Laerm;69639;52.380;9.962;2023-04-28T00:01:19;27.37;26.21;31.60;;
80324;Laerm;69639;52.380;9.962;2023-04-28T00:03:20;27.35;26.25;32.88;;
80324;Laerm;69639;52.380;9.962;2023-04-28T00:05:22;27.33;26.06;32.67;;
80324;Laerm;69639;52.380;9.962;2023-04-28T00:07:24;27.37;26.16;37.44;;
80324;Laerm;69639;52.380;9.962;2023-04-28T00:09:25;27.38;26.20;34.21;;
80324;Laerm;69639;52.380;9.962;2023-04-28T00:11:27;27.37;25.83;31.68;;
80324;Laerm;69639;52.380;9.962;2023-04-28T00:13:29;27.30;26.15;31.23;;
80324;Laerm;69639;52.380;9.962;2023-04-28T00:15:30;27.32;26.14;29.99;;
80324;Laerm;69639;52.380;9.962;2023-04-28T00:17:32;27.31;26.10;30.42;;
80324;Laerm;69639;52.380;9.962;2023-04-28T00:19:34;27.31;26.04;31.86;;
80324;Laerm;69639;52.380;9.962;2023-04-28T00:21:36;27.31;26.26;30.96;;
80324;Laerm;69639;52.380;9.962;2023-04-28T00:23:38;27.29;25.95;30.40;;
80324;Laerm;69639;52.380;9.962;2023-04-28T00:25:39;27.39;26.19;36.66;;
80324;Laerm;69639;52.380;9.962;2023-04-28T00:27:41;27.31;26.17;35.45;;
80324;Laerm;69639;52.380;9.962;2023-04-28T00:29:43;27.77;25.92;45.98;;
80324;Laerm;69639;52.380;9.962;2023-04-28T00:31:44;27.33;26.20;34.00;;
80324;Laerm;69639;52.380;9.962;2023-04-28T00:33:46;27.96;26.22;45.64;;
80324;Laerm;69639;52.380;9.962;2023-04-28T00:35:48;43.31;25.90;69.93;;
80324;Laerm;69639;52.380;9.962;2023-04-28T00:37:50;29.15;26.14;50.40;;
80324;Laerm;69639;52.380;9.962;2023-04-28T00:39:55;27.30;26.07;31.47;;
80324;Laerm;69639;52.380;9.962;2023-04-28T00:41:56;27.37;26.20;36.31;;
80324;Laerm;69639;52.380;9.962;2023-04-28T00:43:58;27.41;26.01;41.59;;
80324;Laerm;69639;52.380;9.962;2023-04-28T00:46:01;27.29;26.26;29.52;;
80324;Laerm;69639;52.380;9.962;2023-04-28T00:48:02;27.31;26.19;30.56;;
80324;Laerm;69639;52.380;9.962;2023-04-28T00:50:04;27.32;26.21;31.27;;
80324;Laerm;69639;52.380;9.962;2023-04-28T00:52:06;27.32;26.25;30.24;;
80324;Laerm;69639;52.380;9.962;2023-04-28T00:54:11;27.44;26.14;39.62;;
80324;Laerm;69639;52.380;9.962;2023-04-28T00:56:14;27.30;26.16;30.43;;
80324;Laerm;69639;52.380;9.962;2023-04-28T00:58:15;27.30;26.21;33.16;;
80324;Laerm;69639;52.380;9.962;2023-04-28T01:00:17;27.43;26.12;31.07;;
80324;Laerm;69639;52.380;9.962;2023-04-28T01:02:19;27.31;26.18;30.11;;
80324;Laerm;69639;52.380;9.962;2023-04-28T01:04:21;27.49;26.04;41.50;;
80324;Laerm;69639;52.380;9.962;2023-04-28T01:06:23;27.32;26.11;31.21;;
80324;Laerm;69639;52.380;9.962;2023-04-28T01:08:32;27.31;26.08;31.32;;
80324;Laerm;69639;52.380;9.962;2023-04-28T01:10:34;27.54;26.20;39.41;;
80324;Laerm;69639;52.380;9.962;2023-04-28T01:12:37;27.67;26.04;44.50;;
80324;Laerm;69639;52.380;9.962;2023-04-28T01:14:38;27.34;26.07;29.66;;
80324;Laerm;69639;52.380;9.962;2023-04-28T01:16:40;27.32;26.00;30.73;;
80324;Laerm;69639;52.380;9.962;2023-04-28T01:18:45;27.35;26.06;32.92;;
80324;Laerm;69639;52.380;9.962;2023-04-28T01:20:47;27.44;26.22;31.10;;
80324;Laerm;69639;52.380;9.962;2023-04-28T01:22:49;27.29;25.92;31.86;;
80324;Laerm;69639;52.380;9.962;2023-04-28T01:24:51;27.30;26.28;32.08;;
80324;Laerm;69639;52.380;9.962;2023-04-28T01:26:53;27.29;26.08;31.59;;
80324;Laerm;69639;52.380;9.962;2023-04-28T01:28:55;27.29;25.96;32.03;;
80324;Laerm;69639;52.380;9.962;2023-04-28T01:30:56;27.29;26.18;30.80;;
80324;Laerm;69639;52.380;9.962;2023-04-28T01:32:58;27.29;26.01;30.40;;
80324;Laerm;69639;52.380;9.962;2023-04-28T01:35:00;27.30;26.13;30.75;;
80324;Laerm;69639;52.380;9.962;2023-04-28T01:37:01;27.58;26.01;45.47;;
80324;Laerm;69639;52.380;9.962;2023-04-28T01:39:04;27.28;26.19;31.31;;
80324;Laerm;69639;52.380;9.962;2023-04-28T01:41:06;27.33;26.15;32.65;;
80324;Laerm;69639;52.380;9.962;2023-04-28T01:43:07;27.29;26.07;30.36;;
80324;Laerm;69639;52.380;9.962;2023-04-28T01:45:09;27.29;26.06;29.56;;
80324;Laerm;69639;52.380;9.962;2023-04-28T01:47:11;27.32;26.06;30.96;;
80324;Laerm;69639;52.380;9.962;2023-04-28T01:49:13;27.29;25.99;31.57;;
80324;Laerm;69639;52.380;9.962;2023-04-28T01:51:14;27.31;25.94;30.87;;
80324;Laerm;69639;52.380;9.962;2023-04-28T01:53:16;27.28;26.03;30.32;;
80324;Laerm;69639;52.380;9.962;2023-04-28T01:55:18;27.34;26.08;30.53;;
80324;Laerm;69639;52.380;9.962;2023-04-28T01:57:19;27.32;26.12;29.57;;
80324;Laerm;69639;52.380;9.962;2023-04-28T01:59:21;27.31;26.14;33.25;;
80324;Laerm;69639;52.380;9.962;2023-04-28T02:01:23;27.40;26.10;29.78;;
80324;Laerm;69639;52.380;9.962;2023-04-28T02:03:24;27.34;26.25;29.51;;
80324;Laerm;69639;52.380;9.962;2023-04-28T02:05:26;27.29;26.09;30.70;;
80324;Laerm;69639;52.380;9.962;2023-04-28T02:07:28;27.31;26.04;30.61;;
80324;Laerm;69639;52.380;9.962;2023-04-28T02:09:29;27.38;26.16;31.28;;
80324;Laerm;69639;52.380;9.962;2023-04-28T02:11:31;27.31;25.92;30.53;;
80324;Laerm;69639;52.380;9.962;2023-04-28T02:13:33;27.34;26.22;30.01;;
80324;Laerm;69639;52.380;9.962;2023-04-28T02:15:41;27.33;26.16;30.62;;
80324;Laerm;69639;52.380;9.962;2023-04-28T02:17:43;27.33;25.85;29.79;;
80324;Laerm;69639;52.380;9.962;2023-04-28T02:19:45;27.33;26.18;31.87;;
80324;Laerm;69639;52.380;9.962;2023-04-28T02:21:47;28.25;26.18;32.75;;
80324;Laerm;69639;52.380;9.962;2023-04-28T02:23:49;27.39;26.15;30.21;;
80324;Laerm;69639;52.380;9.962;2023-04-28T02:25:59;27.36;26.19;30.36;;
80324;Laerm;69639;52.380;9.962;2023-04-28T02:28:01;27.31;26.16;29.51;;
80324;Laerm;69639;52.380;9.962;2023-04-28T02:30:04;27.43;26.24;30.67;;
80324;Laerm;69639;52.380;9.962;2023-04-28T02:32:05;27.31;26.10;29.94;;
80324;Laerm;69639;52.380;9.962;2023-04-28T02:34:07;27.32;26.23;30.79;;
80324;Laerm;69639;52.380;9.962;2023-04-28T02:36:09;27.33;26.14;30.67;;
80324;Laerm;69639;52.380;9.962;2023-04-28T02:38:11;27.53;26.46;31.70;;
80324;Laerm;69639;52.380;9.962;2023-04-28T02:40:12;27.38;25.96;30.64;;
80324;Laerm;69639;52.380;9.962;2023-04-28T02:42:14;27.40;25.87;30.71;;
80324;Laerm;69639;52.380;9.962;2023-04-28T02:44:16;27.37;26.22;30.88;;
80324;Laerm;69639;52.380;9.962;2023-04-28T02:46:18;27.39;26.20;29.92;;
80324;Laerm;69639;52.380;9.962;2023-04-28T02:48:19;27.31;26.13;32.45;;
80324;Laerm;69639;52.380;9.962;2023-04-28T02:50:21;27.42;26.24;30.74;;
80324;Laerm;69639;52.380;9.962;2023-04-28T02:52:23;27.49;26.37;29.37;;
80324;Laerm;69639;52.380;9.962;2023-04-28T02:54:25;27.56;26.49;30.79;;
80324;Laerm;69639;52.380;9.962;2023-04-28T02:56:26;27.60;26.45;30.49;;
80324;Laerm;69639;52.380;9.962;2023-04-28T02:58:28;27.61;26.50;33.07;;
80324;Laerm;69639;52.380;9.962;2023-04-28T03:00:30;27.63;26.61;30.67;;
80324;Laerm;69639;52.380;9.962;2023-04-28T03:02:31;27.69;26.55;29.94;;
80324;Laerm;69639;52.380;9.962;2023-04-28T03:04:33;27.74;26.62;31.59;;
80324;Laerm;69639;52.380;9.962;2023-04-28T03:06:35;27.63;26.39;33.08;;
80324;Laerm;69639;52.380;9.962;2023-04-28T03:08:36;27.50;26.25;31.63;;
80324;Laerm;69639;52.380;9.962;2023-04-28T03:10:38;27.65;26.35;30.98;;
80324;Laerm;69639;52.380;9.962;2023-04-28T03:12:40;27.50;26.31;31.91;;
80324;Laerm;69639;52.380;9.962;2023-04-28T03:14:42;27.41;26.23;30.36;;
80324;Laerm;69639;52.380;9.962;2023-04-28T03:16:43;27.44;26.28;32.56;;
80324;Laerm;69639;52.380;9.962;2023-04-28T03:18:45;27.54;26.27;29.94;;
80324;Laerm;69639;52.380;9.962;2023-04-28T03:20:47;27.69;26.37;31.58;;
80324;Laerm;69639;52.380;9.962;2023-04-28T03:22:49;27.95;26.53;34.90;;
80324;Laerm;69639;52.380;9.962;2023-04-28T03:24:50;27.75;26.52;37.85;;
80324;Laerm;69639;52.380;9.962;2023-04-28T03:26:53;27.80;26.51;35.99;;
80324;Laerm;69639;52.380;9.962;2023-04-28T03:28:55;27.66;26.35;31.23;;
80324;Laerm;69639;52.380;9.962;2023-04-28T03:30:56;27.61;26.23;34.00;;
80324;Laerm;69639;52.380;9.962;2023-04-28T03:32:58;27.58;26.34;36.61;;
80324;Laerm;69639;52.380;9.962;2023-04-28T03:35:00;28.81;26.45;42.86;;
80324;Laerm;69639;52.380;9.962;2023-04-28T03:37:02;27.78;26.44;39.75;;
80324;Laerm;69639;52.380;9.962;2023-04-28T03:39:03;27.79;26.29;31.87;;
80324;Laerm;69639;52.380;9.962;2023-04-28T03:41:05;27.68;26.29;32.75;;
80324;Laerm;69639;52.380;9.962;2023-04-28T03:43:07;27.64;26.31;38.26;;
80324;Laerm;69639;52.380;9.962;2023-04-28T03:45:09;27.48;26.34;33.18;;
80324;Laerm;69639;52.380;9.962;2023-04-28T03:47:10;27.43;25.98;32.34;;
80324;Laerm;69639;52.380;9.962;2023-04-28T03:49:12;28.58;25.99;43.66;;
80324;Laerm;69639;52.380;9.962;2023-04-28T03:51:14;28.13;26.22;48.01;;
80324;Laerm;69639;52.380;9.962;2023-04-28T03:53:16;28.73;26.27;51.80;;
80324;Laerm;69639;52.380;9.962;2023-04-28T03:55:17;28.11;26.23;36.21;;
80324;Laerm;69639;52.380;9.962;2023-04-28T03:57:19;30.36;26.11;37.27;;
80324;Laerm;69639;52.380;9.962;2023-04-28T03:59:21;41.67;26.50;66.33;;
80324;Laerm;69639;52.380;9.962;2023-04-28T04:01:23;30.58;27.35;49.66;;
80324;Laerm;69639;52.380;9.962;2023-04-28T04:03:25;29.96;27.46;46.47;;
80324;Laerm;69639;52.380;9.962;2023-04-28T04:05:27;31.53;27.57;56.31;;
80324;Laerm;69639;52.380;9.962;2023-04-28T04:07:28;30.18;27.71;50.13;;
80324;Laerm;69639;52.380;9.962;2023-04-28T04:09:30;29.42;27.50;41.24;;
80324;Laerm;69639;52.380;9.962;2023-04-28T04:11:32;30.00;27.65;55.31;;
80324;Laerm;69639;52.380;9.962;2023-04-28T04:13:33;30.00;27.69;42.23;;
80324;Laerm;69639;52.380;9.962;2023-04-28T04:15:35;29.87;27.59;51.05;;
80324;Laerm;69639;52.380;9.962;2023-04-28T04:17:37;31.43;27.36;48.51;;
80324;Laerm;69639;52.380;9.962;2023-04-28T04:19:38;30.41;27.74;43.63;;
80324;Laerm;69639;52.380;9.962;2023-04-28T04:21:40;49.50;27.62;81.17;;
80324;Laerm;69639;52.380;9.962;2023-04-28T04:23:42;30.87;27.64;46.29;;
80324;Laerm;69639;52.380;9.962;2023-04-28T04:25:44;30.49;27.44;47.25;;
80324;Laerm;69639;52.380;9.962;2023-04-28T04:27:46;30.66;27.49;43.90;;
80324;Laerm;69639;52.380;9.962;2023-04-28T04:29:48;30.31;27.36;47.01;;
80324;Laerm;69639;52.380;9.962;2023-04-28T04:31:50;30.28;27.64;44.62;;
80324;Laerm;69639;52.380;9.962;2023-04-28T04:33:51;31.74;27.58;46.94;;
80324;Laerm;69639;52.380;9.962;2023-04-28T04:35:53;30.95;27.72;47.91;;
80324;Laerm;69639;52.380;9.962;2023-04-28T04:37:55;29.97;27.43;44.23;;
80324;Laerm;69639;52.380;9.962;2023-04-28T04:39:57;30.29;27.67;48.71;;
80324;Laerm;69639;52.380;9.962;2023-04-28T04:41:59;30.32;27.51;50.48;;
80324;Laerm;69639;52.380;9.962;2023-04-28T04:44:01;30.33;27.46;47.88;;
80324;Laerm;69639;52.380;9.962;2023-04-28T04:46:02;30.11;27.72;45.05;;
80324;Laerm;69639;52.380;9.962;2023-04-28T04:48:04;30.17;27.48;50.47;;
80324;Laerm;69639;52.380;9.962;2023-04-28T04:50:06;31.30;27.36;57.53;;
80324;Laerm;69639;52.380;9.962;2023-04-28T04:52:08;30.30;27.63;43.74;;
80324;Laerm;69639;52.380;9.962;2023-04-28T04:54:10;47.22;27.60;77.02;;
80324;Laerm;69639;52.380;9.962;2023-04-28T04:56:11;30.87;27.40;52.17;;
80324;Laerm;69639;52.380;9.962;2023-04-28T04:58:13;31.22;27.30;47.85;;
80324;Laerm;69639;52.380;9.962;2023-04-28T05:00:15;30.75;27.23;50.84;;
80324;Laerm;69639;52.380;9.962;2023-04-28T05:02:17;31.19;27.60;56.82;;
80324;Laerm;69639;52.380;9.962;2023-04-28T05:04:19;51.36;27.63;82.05;;
80324;Laerm;69639;52.380;9.962;2023-04-28T05:06:20;30.47;27.34;48.09;;
80324;Laerm;69639;52.380;9.962;2023-04-28T05:08:22;30.48;27.69;53.36;;
80324;Laerm;69639;52.380;9.962;2023-04-28T05:10:24;51.56;27.41;84.25;;
80324;Laerm;69639;52.380;9.962;2023-04-28T05:12:25;31.08;27.42;52.99;;
80324;Laerm;69639;52.380;9.962;2023-04-28T05:14:27;31.77;27.53;57.47;;
80324;Laerm;69639;52.380;9.962;2023-04-28T05:16:29;30.88;27.55;52.87;;
80324;Laerm;69639;52.380;9.962;2023-04-28T05:18:30;31.12;27.49;49.49;;
80324;Laerm;69639;52.380;9.962;2023-04-28T05:20:32;30.54;27.30;52.05;;
80324;Laerm;69639;52.380;9.962;2023-04-28T05:22:34;37.53;27.52;64.73;;
80324;Laerm;69639;52.380;9.962;2023-04-28T05:24:35;30.94;27.52;46.75;;
80324;Laerm;69639;52.380;9.962;2023-04-28T05:26:38;31.29;27.32;51.70;;
80324;Laerm;69639;52.380;9.962;2023-04-28T05:28:40;31.17;27.70;50.37;;
80324;Laerm;69639;52.380;9.962;2023-04-28T05:30:41;31.44;27.55;54.38;;
80324;Laerm;69639;52.380;9.962;2023-04-28T05:32:43;35.41;27.71;60.27;;
80324;Laerm;69639;52.380;9.962;2023-04-28T05:34:44;32.10;27.35;54.81;;
80324;Laerm;69639;52.380;9.962;2023-04-28T05:36:46;34.02;27.41;65.15;;
80324;Laerm;69639;52.380;9.962;2023-04-28T05:38:48;33.54;27.80;56.66;;
80324;Laerm;69639;52.380;9.962;2023-04-28T05:40:49;33.81;27.65;59.31;;
80324;Laerm;69639;52.380;9.962;2023-04-28T05:42:51;38.52;27.98;69.60;;
80324;Laerm;69639;52.380;9.962;2023-04-28T05:44:53;34.40;26.54;57.60;;
80324;Laerm;69639;52.380;9.962;2023-04-28T05:46:55;28.25;26.44;41.50;;
80324;Laerm;69639;52.380;9.962;2023-04-28T05:48:57;36.94;26.57;59.83;;
80324;Laerm;69639;52.380;9.962;2023-04-28T05:50:58;30.86;27.92;51.56;;
80324;Laerm;69639;52.380;9.962;2023-04-28T05:53:00;47.30;27.99;72.60;;
80324;Laerm;69639;52.380;9.962;2023-04-28T05:55:02;52.86;28.17;77.83;;
80324;Laerm;69639;52.380;9.962;2023-04-28T05:57:03;30.32;27.80;45.26;;
80324;Laerm;69639;52.380;9.962;2023-04-28T05:59:05;30.90;27.26;52.26;;
80324;Laerm;69639;52.380;9.962;2023-04-28T06:01:07;46.54;27.60;79.32;;
80324;Laerm;69639;52.380;9.962;2023-04-28T06:03:08;31.12;27.74;49.12;;
80324;Laerm;69639;52.380;9.962;2023-04-28T06:05:10;48.21;27.96;81.39;;
80324;Laerm;69639;52.380;9.962;2023-04-28T06:07:12;38.66;27.85;55.53;;
80324;Laerm;69639;52.380;9.962;2023-04-28T06:09:13;39.98;27.72;57.04;;
80324;Laerm;69639;52.380;9.962;2023-04-28T06:11:15;39.48;28.09;53.99;;
80324;Laerm;69639;52.380;9.962;2023-04-28T06:13:17;36.22;27.85;51.79;;
80324;Laerm;69639;52.380;9.962;2023-04-28T06:15:18;35.82;27.67;56.58;;
80324;Laerm;69639;52.380;9.962;2023-04-28T06:17:20;31.93;27.59;55.53;;
80324;Laerm;69639;52.380;9.962;2023-04-28T06:19:21;29.69;27.56;43.81;;
80324;Laerm;69639;52.380;9.962;2023-04-28T06:21:23;36.83;27.47;64.44;;
80324;Laerm;69639;52.380;9.962;2023-04-28T06:23:25;31.24;27.56;59.62;;
80324;Laerm;69639;52.380;9.962;2023-04-28T06:25:27;34.57;27.83;52.62;;
80324;Laerm;69639;52.380;9.962;2023-04-28T06:27:29;53.54;27.58;72.15;;
80324;Laerm;69639;52.380;9.962;2023-04-28T06:29:31;32.64;27.74;50.95;;
80324;Laerm;69639;52.380;9.962;2023-04-28T06:31:32;29.82;27.70;45.51;;
80324;Laerm;69639;52.380;9.962;2023-04-28T06:33:34;52.25;26.56;85.24;;
80324;Laerm;69639;52.380;9.962;2023-04-28T06:35:36;31.20;26.59;60.85;;
80324;Laerm;69639;52.380;9.962;2023-04-28T06:37:38;30.28;26.44;46.03;;
80324;Laerm;69639;52.380;9.962;2023-04-28T06:39:49;29.22;26.15;48.48;;
80324;Laerm;69639;52.380;9.962;2023-04-28T06:41:51;31.60;26.14;53.80;;
80324;Laerm;69639;52.380;9.962;2023-04-28T06:43:52;33.77;26.35;52.61;;
80324;Laerm;69639;52.380;9.962;2023-04-28T06:45:54;45.40;26.46;75.50;;
80324;Laerm;69639;52.380;9.962;2023-04-28T06:47:56;36.67;26.58;65.55;;
80324;Laerm;69639;52.380;9.962;2023-04-28T06:49:57;29.48;27.01;42.54;;
80324;Laerm;69639;52.380;9.962;2023-04-28T06:51:59;29.53;27.24;43.07;;
80324;Laerm;69639;52.380;9.962;2023-04-28T06:54:01;29.30;27.23;39.15;;
80324;Laerm;69639;52.380;9.962;2023-04-28T06:56:03;29.28;27.25;41.64;;
80324;Laerm;69639;52.380;9.962;2023-04-28T06:58:04;29.90;26.28;47.36;;
80324;Laerm;69639;52.380;9.962;2023-04-28T07:00:06;29.27;26.34;48.23;;
80324;Laerm;69639;52.380;9.962;2023-04-28T07:02:09;33.66;26.28;63.08;;
80324;Laerm;69639;52.380;9.962;2023-04-28T07:04:10;27.65;26.10;37.82;;
80324;Laerm;69639;52.380;9.962;2023-04-28T07:06:12;32.61;26.44;49.78;;
80324;Laerm;69639;52.380;9.962;2023-04-28T07:08:14;30.44;26.57;46.03;;
80324;Laerm;69639;52.380;9.962;2023-04-28T07:10:16;50.43;26.65;82.09;;
80324;Laerm;69639;52.380;9.962;2023-04-28T07:12:18;37.21;26.59;58.75;;
80324;Laerm;69639;52.380;9.962;2023-04-28T07:14:19;36.99;26.44;54.44;;
80324;Laerm;69639;52.380;9.962;2023-04-28T07:16:21;32.86;26.52;56.42;;
80324;Laerm;69639;52.380;9.962;2023-04-28T07:18:23;30.54;26.55;51.32;;
80324;Laerm;69639;52.380;9.962;2023-04-28T07:20:25;30.69;26.13;54.42;;
80324;Laerm;69639;52.380;9.962;2023-04-28T07:22:26;33.90;26.46;59.51;;
80324;Laerm;69639;52.380;9.962;2023-04-28T07:24:28;30.69;26.42;56.01;;
80324;Laerm;69639;52.380;9.962;2023-04-28T07:26:32;61.17;26.52;92.73;;
80324;Laerm;69639;52.380;9.962;2023-04-28T07:28:34;37.19;26.66;53.20;;
80324;Laerm;69639;52.380;9.962;2023-04-28T07:30:36;35.15;26.51;52.95;;
80324;Laerm;69639;52.380;9.962;2023-04-28T07:32:37;35.83;25.98;54.06;;
80324;Laerm;69639;52.380;9.962;2023-04-28T07:34:39;35.45;26.44;52.91;;
80324;Laerm;69639;52.380;9.962;2023-04-28T07:36:41;46.15;26.32;76.11;;
80324;Laerm;69639;52.380;9.962;2023-04-28T07:38:42;31.00;26.28;54.03;;
80324;Laerm;69639;52.380;9.962;2023-04-28T07:40:45;30.51;26.54;46.71;;
80324;Laerm;69639;52.380;9.962;2023-04-28T07:42:46;34.14;26.48;55.31;;
80324;Laerm;69639;52.380;9.962;2023-04-28T07:44:48;47.91;26.53;75.68;;
80324;Laerm;69639;52.380;9.962;2023-04-28T07:46:50;32.46;26.31;49.69;;
80324;Laerm;69639;52.380;9.962;2023-04-28T07:48:52;32.83;26.62;49.23;;
80324;Laerm;69639;52.380;9.962;2023-04-28T07:50:54;34.73;26.58;53.12;;
80324;Laerm;69639;52.380;9.962;2023-04-28T07:52:57;32.73;26.42;53.43;;
80324;Laerm;69639;52.380;9.962;2023-04-28T07:54:59;36.19;26.36;58.61;;
80324;Laerm;69639;52.380;9.962;2023-04-28T07:57:01;36.59;26.40;60.46;;
80324;Laerm;69639;52.380;9.962;2023-04-28T07:59:02;34.06;26.26;58.78;;
80324;Laerm;69639;52.380;9.962;2023-04-28T08:01:04;55.17;27.06;87.00;;
80324;Laerm;69639;52.380;9.962;2023-04-28T08:03:06;49.56;27.32;71.08;;
80324;Laerm;69639;52.380;9.962;2023-04-28T08:05:08;53.15;27.38;66.25;;
80324;Laerm;69639;52.380;9.962;2023-04-28T08:07:10;53.00;27.30;66.74;;
80324;Laerm;69639;52.380;9.962;2023-04-28T08:09:11;52.66;27.51;65.64;;
80324;Laerm;69639;52.380;9.962;2023-04-28T08:11:13;53.07;27.52;67.58;;
80324;Laerm;69639;52.380;9.962;2023-04-28T08:13:15;53.41;27.72;69.10;;
80324;Laerm;69639;52.380;9.962;2023-04-28T08:15:17;52.24;27.34;70.63;;
80324;Laerm;69639;52.380;9.962;2023-04-28T08:17:18;52.97;27.43;72.37;;
80324;Laerm;69639;52.380;9.962;2023-04-28T08:19:20;52.23;26.90;67.16;;
80324;Laerm;69639;52.380;9.962;2023-04-28T08:21:23;51.19;26.95;66.91;;
80324;Laerm;69639;52.380;9.962;2023-04-28T08:23:24;53.70;27.60;69.89;;
80324;Laerm;69639;52.380;9.962;2023-04-28T08:25:26;51.52;27.42;66.69;;
80324;Laerm;69639;52.380;9.962;2023-04-28T08:27:28;52.31;27.19;69.80;;
80324;Laerm;69639;52.380;9.962;2023-04-28T08:29:30;52.88;27.34;66.34;;
80324;Laerm;69639;52.380;9.962;2023-04-28T08:31:32;53.54;27.71;71.82;;
80324;Laerm;69639;52.380;9.962;2023-04-28T08:33:34;51.86;27.15;68.42;;
80324;Laerm;69639;52.380;9.962;2023-04-28T08:35:35;52.48;27.25;67.50;;
80324;Laerm;69639;52.380;9.962;2023-04-28T08:37:38;52.06;27.18;67.22;;
80324;Laerm;69639;52.380;9.962;2023-04-28T08:39:39;52.60;27.51;67.13;;
80324;Laerm;69639;52.380;9.962;2023-04-28T08:41:52;51.43;27.38;68.97;;
80324;Laerm;69639;52.380;9.962;2023-04-28T08:44:07;53.11;27.47;70.69;;
80324;Laerm;69639;52.380;9.962;2023-04-28T08:46:16;51.32;27.35;68.49;;
80324;Laerm;69639;52.380;9.962;2023-04-28T08:48:20;48.87;27.11;65.17;;
80324;Laerm;69639;52.380;9.962;2023-04-28T08:50:22;51.08;27.37;70.44;;
80324;Laerm;69639;52.380;9.962;2023-04-28T08:52:25;53.22;27.33;71.51;;
80324;Laerm;69639;52.380;9.962;2023-04-28T08:54:30;51.35;27.18;67.71;;
80324;Laerm;69639;52.380;9.962;2023-04-28T08:56:32;51.63;27.33;68.86;;
80324;Laerm;69639;52.380;9.962;2023-04-28T08:58:34;52.59;27.25;69.47;;
80324;Laerm;69639;52.380;9.962;2023-04-28T09:00:36;52.99;27.13;71.40;;
80324;Laerm;69639;52.380;9.962;2023-04-28T09:02:38;51.72;27.25;67.78;;
80324;Laerm;69639;52.380;9.962;2023-04-28T09:04:40;52.16;27.30;69.88;;
80324;Laerm;69639;52.380;9.962;2023-04-28T09:06:41;52.48;27.34;70.22;;
80324;Laerm;69639;52.380;9.962;2023-04-28T09:08:43;52.09;27.25;66.56;;
80324;Laerm;69639;52.380;9.962;2023-04-28T09:10:45;50.84;27.14;68.07;;
80324;Laerm;69639;52.380;9.962;2023-04-28T09:12:53;50.03;26.97;63.73;;
80324;Laerm;69639;52.380;9.962;2023-04-28T09:14:57;51.43;27.38;66.14;;
80324;Laerm;69639;52.380;9.962;2023-04-28T09:16:59;51.34;27.43;67.55;;
80324;Laerm;69639;52.380;9.962;2023-04-28T09:19:01;51.35;27.06;67.70;;
80324;Laerm;69639;52.380;9.962;2023-04-28T09:23:13;53.07;27.09;72.18;;
80324;Laerm;69639;52.380;9.962;2023-04-28T09:25:16;51.47;27.43;65.92;;
80324;Laerm;69639;52.380;9.962;2023-04-28T09:27:25;52.57;27.01;67.52;;
80324;Laerm;69639;52.380;9.962;2023-04-28T09:29:28;52.23;27.46;67.88;;
80324;Laerm;69639;52.380;9.962;2023-04-28T09:31:30;50.53;27.35;68.92;;
80324;Laerm;69639;52.380;9.962;2023-04-28T09:33:32;51.15;27.09;66.89;;
80324;Laerm;69639;52.380;9.962;2023-04-28T09:35:43;52.40;27.33;68.10;;
80324;Laerm;69639;52.380;9.962;2023-04-28T09:37:45;54.54;28.04;69.55;;
80324;Laerm;69639;52.380;9.962;2023-04-28T09:39:48;46.61;27.54;68.00;;
80324;Laerm;69639;52.380;9.962;2023-04-28T09:41:50;42.82;27.81;65.97;;
80324;Laerm;69639;52.380;9.962;2023-04-28T09:43:52;53.15;27.59;69.15;;
80324;Laerm;69639;52.380;9.962;2023-04-28T09:45:55;45.74;27.41;66.67;;
80324;Laerm;69639;52.380;9.962;2023-04-28T09:48:08;39.56;27.00;52.51;;
80324;Laerm;69639;52.380;9.962;2023-04-28T09:50:12;39.91;27.05;53.66;;
80324;Laerm;69639;52.380;9.962;2023-04-28T09:52:14;41.34;26.66;63.32;;
80324;Laerm;69639;52.380;9.962;2023-04-28T09:54:16;40.10;26.33;52.31;;
80324;Laerm;69639;52.380;9.962;2023-04-28T09:56:19;43.08;26.59;62.35;;
80324;Laerm;69639;52.380;9.962;2023-04-28T09:58:23;43.14;26.55;62.01;;
80324;Laerm;69639;52.380;9.962;2023-04-28T10:00:25;40.02;26.58;59.72;;
80324;Laerm;69639;52.380;9.962;2023-04-28T10:02:28;39.02;26.50;67.27;;
80324;Laerm;69639;52.380;9.962;2023-04-28T10:04:29;39.23;26.63;58.61;;
80324;Laerm;69639;52.380;9.962;2023-04-28T10:06:33;42.04;26.50;71.41;;
80324;Laerm;69639;52.380;9.962;2023-04-28T10:08:35;39.34;26.62;57.26;;
80324;Laerm;69639;52.380;9.962;2023-04-28T10:10:37;42.53;26.66;67.48;;
80324;Laerm;69639;52.380;9.962;2023-04-28T10:12:39;38.20;26.77;59.78;;
80324;Laerm;69639;52.380;9.962;2023-04-28T10:14:40;39.43;26.70;57.38;;
80324;Laerm;69639;52.380;9.962;2023-04-28T10:16:43;42.03;26.55;64.13;;
80324;Laerm;69639;52.380;9.962;2023-04-28T10:18:45;38.01;26.79;51.04;;
80324;Laerm;69639;52.380;9.962;2023-04-28T10:20:48;40.08;27.02;61.37;;
80324;Laerm;69639;52.380;9.962;2023-04-28T10:25:34;38.96;26.68;67.55;;
80324;Laerm;69639;52.380;9.962;2023-04-28T10:27:37;39.95;26.59;64.39;;
80324;Laerm;69639;52.380;9.962;2023-04-28T10:29:39;38.55;26.64;59.87;;
80324;Laerm;69639;52.380;9.962;2023-04-28T10:34:21;47.05;26.61;68.96;;
80324;Laerm;69639;52.380;9.962;2023-04-28T10:36:46;51.14;26.96;68.84;;
80324;Laerm;69639;52.380;9.962;2023-04-28T10:39:08;38.17;26.63;51.88;;
80324;Laerm;69639;52.380;9.962;2023-04-28T10:41:30;38.21;26.54;54.85;;
80324;Laerm;69639;52.380;9.962;2023-04-28T10:43:37;38.14;26.76;66.57;;
80324;Laerm;69639;52.380;9.962;2023-04-28T10:48:01;27.55;26.32;31.91;;
80324;Laerm;69639;52.380;9.962;2023-04-28T10:50:07;27.45;26.30;35.70;;
80324;Laerm;69639;52.380;9.962;2023-04-28T10:54:39;45.80;26.46;70.98;;
80324;Laerm;69639;52.380;9.962;2023-04-28T10:57:13;28.97;26.30;44.85;;
80324;Laerm;69639;52.380;9.962;2023-04-28T10:59:33;28.13;26.13;39.49;;
80324;Laerm;69639;52.380;9.962;2023-04-28T11:01:35;27.42;26.09;32.92;;
80324;Laerm;69639;52.380;9.962;2023-04-28T11:06:23;27.55;26.29;33.48;;
80324;Laerm;69639;52.380;9.962;2023-04-28T11:13:28;27.43;26.17;31.85;;
80324;Laerm;69639;52.380;9.962;2023-04-28T11:15:30;27.69;26.39;32.21;;
80324;Laerm;69639;52.380;9.962;2023-04-28T11:17:39;27.43;26.17;36.81;;
80324;Laerm;69639;52.380;9.962;2023-04-28T11:19:43;27.30;25.98;31.36;;
80324;Laerm;69639;52.380;9.962;2023-04-28T11:21:46;27.37;26.25;31.34;;
80324;Laerm;69639;52.380;9.962;2023-04-28T11:23:48;27.37;26.30;31.52;;
80324;Laerm;69639;52.380;9.962;2023-04-28T11:25:56;27.51;26.36;32.03;;
80324;Laerm;69639;52.380;9.962;2023-04-28T11:28:03;27.42;26.26;32.04;;
80324;Laerm;69639;52.380;9.962;2023-04-28T11:30:25;27.31;26.03;31.80;;
80324;Laerm;69639;52.380;9.962;2023-04-28T11:32:28;27.39;26.21;37.74;;
80324;Laerm;69639;52.380;9.962;2023-04-28T11:34:30;27.80;26.08;45.55;;
80324;Laerm;69639;52.380;9.962;2023-04-28T11:38:43;27.40;26.26;31.51;;
80324;Laerm;69639;52.380;9.962;2023-04-28T11:40:57;27.32;26.04;32.08;;
80324;Laerm;69639;52.380;9.962;2023-04-28T11:42:59;28.50;26.09;45.25;;
80324;Laerm;69639;52.380;9.962;2023-04-28T11:45:01;48.46;26.69;68.35;;
80324;Laerm;69639;52.380;9.962;2023-04-28T11:47:03;31.33;26.84;48.07;;
80324;Laerm;69639;52.380;9.962;2023-04-28T11:49:05;32.79;27.12;56.78;;